Time;durP1;ratioP1;P1;durP2;ratioP2;P2;SDS_P1;SDS_P2;PMS_P1;PMS_P2;Temp;Humidity;BMP_temperature;BMP_pressure;BME280_temperature;BME280_humidity;BME280_pressure;Samples;Min_cycle;Max_cycle;Signal;HPM_P1;HPM_P2
2023/07/05 00:00:34;;;;;;;20.60;7.40;;;;;;;;;;5016391;28;92558;-74
2023/07/05 00:03:00;;;;;;;12.15;6.85;;;;;;;;;;5012721;28;96024;-73
2023/07/05 00:05:27;;;;;;;20.95;8.07;;;;;;;;;;5014307;28;92436;-72
2023/07/05 00:07:53;;;;;;;16.13;7.40;;;;;;;;;;5014286;28;92940;-71
2023/07/05 00:10:20;;;;;;;17.70;8.13;;;;;;;;;;5013783;28;93500;-72
2023/07/05 00:12:46;;;;;;;16.63;8.02;;;;;;;;;;5014207;28;92398;-70
2023/07/05 00:15:13;;;;;;;15.98;8.00;;;;;;;;;;5014437;28;93559;-72
2023/07/05 00:17:39;;;;;;;17.65;7.22;;;;;;;;;;5014338;28;93491;-72
2023/07/05 00:20:06;;;;;;;17.38;7.20;;;;;;;;;;5014912;28;91992;-73
2023/07/05 00:22:32;;;;;;;14.02;7.25;;;;;;;;;;5017496;28;93544;-73
2023/07/05 00:25:00;;;;;;;17.25;7.82;;;;;;;;;;5014110;28;92554;-73
2023/07/05 00:27:26;;;;;;;12.57;7.18;;;;;;;;;;5011202;28;94914;-73
2023/07/05 00:29:53;;;;;;;14.45;6.65;;;;;;;;;;5014288;28;94710;-73
2023/07/05 00:32:20;;;;;;;13.82;6.22;;;;;;;;;;5012868;28;92476;-72
2023/07/05 00:34:46;;;;;;;11.50;5.75;;;;;;;;;;5014058;28;93166;-72
2023/07/05 00:37:13;;;;;;;13.13;6.68;;;;;;;;;;5013851;28;93617;-73
2023/07/05 00:39:39;;;;;;;14.52;6.22;;;;;;;;;;5014264;28;92443;-72
2023/07/05 00:42:06;;;;;;;25.75;6.30;;;;;;;;;;5013961;28;93167;-73
2023/07/05 00:44:32;;;;;;;21.70;6.78;;;;;;;;;;5017228;28;92780;-73
2023/07/05 00:47:02;;;;;;;12.15;6.45;;;;;;;;;;5013996;28;92419;-73
2023/07/05 00:49:29;;;;;;;13.63;6.10;;;;;;;;;;5013950;28;93459;-72
2023/07/05 00:52:04;;;;;;;15.25;6.72;;;;;;;;;;5011601;28;94878;-73
2023/07/05 00:54:42;;;;;;;12.95;6.88;;;;;;;;;;5013881;28;95655;-73
2023/07/05 00:57:08;;;;;;;14.63;6.35;;;;;;;;;;5013637;28;93941;-72
2023/07/05 00:59:39;;;;;;;12.75;6.18;;;;;;;;;;5014157;28;92456;-74
2023/07/05 01:02:05;;;;;;;12.18;5.75;;;;;;;;;;5013646;28;93388;-73
2023/07/05 01:04:32;;;;;;;15.93;6.03;;;;;;;;;;5013352;28;92682;-73
2023/07/05 01:06:59;;;;;;;11.82;6.18;;;;;;;;;;5016637;28;92464;-71
2023/07/05 01:09:26;;;;;;;10.85;5.88;;;;;;;;;;5014068;28;92798;-71
2023/07/05 01:11:58;;;;;;;11.88;5.95;;;;;;;;;;5013477;28;92507;-71
2023/07/05 01:14:37;;;;;;;8.65;5.53;;;;;;;;;;5013690;28;92659;-71
2023/07/05 01:17:26;;;;;;;9.55;5.47;;;;;;;;;;5011959;28;95797;-71
2023/07/05 01:20:11;;;;;;;13.05;6.05;;;;;;;;;;5013658;28;92408;-71
2023/07/05 01:22:37;;;;;;;10.38;5.82;;;;;;;;;;5013432;28;94203;-71
2023/07/05 01:25:23;;;;;;;10.00;5.78;;;;;;;;;;5013607;28;94529;-70
2023/07/05 01:28:01;;;;;;;9.68;5.03;;;;;;;;;;5013289;28;92449;-71
2023/07/05 01:30:41;;;;;;;10.20;6.07;;;;;;;;;;5019734;28;93369;-71
2023/07/05 01:33:17;;;;;;;16.77;5.43;;;;;;;;;;5016537;28;92484;-73
2023/07/05 01:35:52;;;;;;;16.70;5.45;;;;;;;;;;5017178;28;93228;-73
2023/07/05 01:38:19;;;;;;;10.45;5.05;;;;;;;;;;5016620;28;93456;-73
2023/07/05 01:40:54;;;;;;;8.30;4.82;;;;;;;;;;5016792;28;92457;-72
2023/07/05 01:43:21;;;;;;;8.93;4.88;;;;;;;;;;5015382;28;94759;-72
2023/07/05 01:46:06;;;;;;;11.27;5.35;;;;;;;;;;5016465;28;93957;-72
2023/07/05 01:48:45;;;;;;;10.05;4.50;;;;;;;;;;5016497;28;92368;-71
2023/07/05 01:51:17;;;;;;;7.63;4.10;;;;;;;;;;5019544;28;94254;-71
2023/07/05 01:53:58;;;;;;;7.55;4.05;;;;;;;;;;5016936;28;92630;-71
2023/07/05 01:56:28;;;;;;;8.75;3.85;;;;;;;;;;5016098;28;93717;-72
2023/07/05 01:58:55;;;;;;;8.32;4.18;;;;;;;;;;5016497;28;93359;-72
2023/07/05 02:01:22;;;;;;;6.43;3.45;;;;;;;;;;5016767;28;91685;-72
2023/07/05 02:03:50;;;;;;;6.85;3.50;;;;;;;;;;5016416;28;92441;-72
2023/07/05 02:06:17;;;;;;;5.88;3.38;;;;;;;;;;5015680;28;93504;-72
2023/07/05 02:08:45;;;;;;;6.55;2.95;;;;;;;;;;5014812;28;94958;-72
2023/07/05 02:11:11;;;;;;;5.68;3.03;;;;;;;;;;5015721;28;95718;-72
2023/07/05 02:13:38;;;;;;;4.88;3.00;;;;;;;;;;5019448;28;94518;-72
2023/07/05 02:16:04;;;;;;;3.05;2.47;;;;;;;;;;5016481;28;92614;-72
2023/07/05 02:18:31;;;;;;;4.45;3.10;;;;;;;;;;5015751;28;94002;-72
2023/07/05 02:20:57;;;;;;;5.55;3.17;;;;;;;;;;5016228;28;92428;-71
2023/07/05 02:23:23;;;;;;;5.68;3.08;;;;;;;;;;5016170;28;93074;-71
2023/07/05 02:25:50;;;;;;;6.78;3.45;;;;;;;;;;5014518;28;93691;-72
2023/07/05 02:28:17;;;;;;;3.67;2.40;;;;;;;;;;5015697;28;92417;-71
2023/07/05 02:30:44;;;;;;;4.63;2.38;;;;;;;;;;5016227;28;94322;-72
2023/07/05 02:33:10;;;;;;;5.00;2.50;;;;;;;;;;5013909;28;94979;-72
2023/07/05 02:35:38;;;;;;;8.52;1.90;;;;;;;;;;5018723;28;92523;-72
2023/07/05 02:38:05;;;;;;;5.18;2.10;;;;;;;;;;5015323;28;93808;-72
2023/07/05 02:40:31;;;;;;;7.68;2.10;;;;;;;;;;5014529;28;92407;-72
2023/07/05 02:42:59;;;;;;;6.03;2.25;;;;;;;;;;5015766;28;94318;-72
2023/07/05 02:45:26;;;;;;;4.00;1.95;;;;;;;;;;5015261;28;93469;-72
2023/07/05 02:47:53;;;;;;;3.42;2.00;;;;;;;;;;5015489;28;92516;-72
2023/07/05 02:50:20;;;;;;;4.63;2.20;;;;;;;;;;5016249;28;94526;-73
2023/07/05 02:52:46;;;;;;;2.45;2.03;;;;;;;;;;5014923;28;93388;-72
2023/07/05 02:55:13;;;;;;;8.75;2.67;;;;;;;;;;5014167;28;92427;-72
2023/07/05 02:57:39;;;;;;;8.10;2.42;;;;;;;;;;5016827;28;95146;-73
2023/07/05 03:00:06;;;;;;;7.00;3.00;;;;;;;;;;5015564;28;92402;-72
2023/07/05 03:02:33;;;;;;;8.65;3.10;;;;;;;;;;5015236;28;93436;-72
2023/07/05 03:05:06;;;;;;;4.25;2.47;;;;;;;;;;5015406;28;93388;-72
2023/07/05 03:07:32;;;;;;;4.88;3.25;;;;;;;;;;5015134;28;92407;-72
2023/07/05 03:09:59;;;;;;;8.75;3.30;;;;;;;;;;5015415;28;93066;-72
2023/07/05 03:12:25;;;;;;;16.08;3.15;;;;;;;;;;5015117;28;94645;-72
2023/07/05 03:14:52;;;;;;;4.45;3.00;;;;;;;;;;5015776;28;92066;-72
2023/07/05 03:17:19;;;;;;;5.07;3.35;;;;;;;;;;5015627;28;92455;-72
2023/07/05 03:19:45;;;;;;;5.13;3.35;;;;;;;;;;5017711;28;92364;-72
2023/07/05 03:22:11;;;;;;;7.60;3.60;;;;;;;;;;5013510;28;94952;-72
2023/07/05 03:24:38;;;;;;;8.77;4.00;;;;;;;;;;5014994;28;93452;-72
2023/07/05 03:27:04;;;;;;;6.93;4.10;;;;;;;;;;5014424;28;92420;-72
2023/07/05 03:29:31;;;;;;;8.23;4.32;;;;;;;;;;5015043;28;93169;-72
2023/07/05 03:31:58;;;;;;;6.93;4.22;;;;;;;;;;5014762;28;93413;-72
2023/07/05 03:34:24;;;;;;;4.57;3.70;;;;;;;;;;5014703;28;92821;-72
2023/07/05 03:36:51;;;;;;;6.05;3.75;;;;;;;;;;5014565;28;93173;-72
2023/07/05 03:39:17;;;;;;;7.45;4.03;;;;;;;;;;5015214;28;93633;-72
2023/07/05 03:41:44;;;;;;;6.18;3.35;;;;;;;;;;5018247;28;92491;-72
2023/07/05 03:44:10;;;;;;;5.35;3.67;;;;;;;;;;5014384;28;93625;-72
2023/07/05 03:46:36;;;;;;;7.05;3.35;;;;;;;;;;5013562;28;94881;-72
2023/07/05 03:49:03;;;;;;;5.68;3.45;;;;;;;;;;5014212;28;96583;-73
2023/07/05 03:51:29;;;;;;;5.82;3.50;;;;;;;;;;5014195;28;93494;-72
2023/07/05 03:53:56;;;;;;;5.68;3.20;;;;;;;;;;5014757;28;92433;-72
2023/07/05 03:56:23;;;;;;;8.85;3.53;;;;;;;;;;5014726;28;94261;-72
2023/07/05 03:58:50;;;;;;;8.93;4.40;;;;;;;;;;5012803;28;93464;-73
2023/07/05 04:01:23;;;;;;;5.32;3.45;;;;;;;;;;5017299;28;92558;-73
2023/07/05 04:03:51;;;;;;;7.88;3.70;;;;;;;;;;5014701;28;92636;-73
2023/07/05 04:06:18;;;;;;;7.88;3.90;;;;;;;;;;5014555;28;92454;-72
2023/07/05 04:08:44;;;;;;;7.15;3.42;;;;;;;;;;5014329;28;93178;-73
2023/07/05 04:11:10;;;;;;;6.40;3.67;;;;;;;;;;5012170;28;95881;-73
2023/07/05 04:13:37;;;;;;;4.90;2.97;;;;;;;;;;5014027;28;92461;-73
2023/07/05 04:16:10;;;;;;;8.25;4.03;;;;;;;;;;5014084;28;93279;-73
2023/07/05 04:18:37;;;;;;;6.03;3.72;;;;;;;;;;5014006;28;93434;-72
2023/07/05 04:21:04;;;;;;;6.85;4.00;;;;;;;;;;5014168;28;92695;-73
2023/07/05 04:23:30;;;;;;;7.90;3.78;;;;;;;;;;5016820;28;93223;-72
2023/07/05 04:25:57;;;;;;;6.95;3.72;;;;;;;;;;5013666;28;92547;-73
2023/07/05 04:28:24;;;;;;;7.80;3.80;;;;;;;;;;5014429;28;93230;-73
2023/07/05 04:30:50;;;;;;;6.40;3.90;;;;;;;;;;5013696;28;93516;-73
2023/07/05 04:33:17;;;;;;;6.25;3.90;;;;;;;;;;5014183;28;92390;-73
2023/07/05 04:35:47;;;;;;;6.70;3.92;;;;;;;;;;5012507;28;94765;-73
2023/07/05 04:38:13;;;;;;;9.47;4.87;;;;;;;;;;5014176;28;94583;-73
2023/07/05 04:40:40;;;;;;;16.95;4.30;;;;;;;;;;5013975;28;92419;-73
2023/07/05 04:43:06;;;;;;;9.05;4.40;;;;;;;;;;5013316;28;93293;-74
2023/07/05 04:45:33;;;;;;;8.50;4.15;;;;;;;;;;5016359;28;93497;-74
2023/07/05 04:47:59;;;;;;;14.30;3.97;;;;;;;;;;5013857;28;93189;-72
2023/07/05 04:50:26;;;;;;;8.77;4.18;;;;;;;;;;5013779;28;95586;-72
2023/07/05 04:52:52;;;;;;;7.90;4.38;;;;;;;;;;5014276;28;91694;-72
2023/07/05 04:55:18;;;;;;;7.07;4.00;;;;;;;;;;5013623;28;92489;-72
2023/07/05 04:57:45;;;;;;;6.78;4.25;;;;;;;;;;5013278;28;93575;-72
2023/07/05 05:00:11;;;;;;;7.13;4.60;;;;;;;;;;5011820;28;94871;-72
2023/07/05 05:02:38;;;;;;;9.32;4.50;;;;;;;;;;5013521;28;95690;-74
2023/07/05 05:05:06;;;;;;;8.63;4.30;;;;;;;;;;5016526;28;93417;-72
2023/07/05 05:07:33;;;;;;;8.98;4.20;;;;;;;;;;5018574;28;92447;-72
2023/07/05 05:10:00;;;;;;;7.82;4.35;;;;;;;;;;5016717;28;93578;-74
2023/07/05 05:12:26;;;;;;;9.30;4.00;;;;;;;;;;5016620;28;92709;-75
2023/07/05 05:14:52;;;;;;;16.15;3.95;;;;;;;;;;5017291;28;94473;-75
2023/07/05 05:17:19;;;;;;;9.95;4.30;;;;;;;;;;5017645;28;92600;-74
2023/07/05 05:19:45;;;;;;;11.75;4.20;;;;;;;;;;5016802;28;92494;-73
2023/07/05 05:22:12;;;;;;;8.75;4.47;;;;;;;;;;5016769;28;93266;-73
2023/07/05 05:24:38;;;;;;;6.78;4.55;;;;;;;;;;5014904;28;95958;-73
2023/07/05 05:27:05;;;;;;;11.13;4.53;;;;;;;;;;5016080;28;92534;-73
2023/07/05 05:29:32;;;;;;;6.15;4.13;;;;;;;;;;5019440;28;93175;-73
2023/07/05 05:31:58;;;;;;;8.52;3.85;;;;;;;;;;5016469;28;92444;-71
2023/07/05 05:34:25;;;;;;;6.45;3.90;;;;;;;;;;5016861;28;93496;-74
2023/07/05 05:36:52;;;;;;;7.82;4.22;;;;;;;;;;5016367;28;93643;-73
2023/07/05 05:39:19;;;;;;;4.85;3.67;;;;;;;;;;5016266;28;92452;-74
2023/07/05 05:41:46;;;;;;;9.35;4.00;;;;;;;;;;5015747;28;93112;-72
2023/07/05 05:44:12;;;;;;;5.10;3.60;;;;;;;;;;5014516;28;93518;-72
2023/07/05 05:46:38;;;;;;;6.95;3.40;;;;;;;;;;5016702;28;92530;-72
2023/07/05 05:49:05;;;;;;;10.63;4.47;;;;;;;;;;5013254;28;94800;-72
2023/07/05 05:51:31;;;;;;;6.85;4.35;;;;;;;;;;5019169;28;93601;-72
2023/07/05 05:53:58;;;;;;;5.68;3.80;;;;;;;;;;5015789;28;93240;-72
2023/07/05 05:56:24;;;;;;;9.30;4.50;;;;;;;;;;5016003;28;93536;-72
2023/07/05 05:58:50;;;;;;;8.40;4.10;;;;;;;;;;5016284;28;92350;-72
2023/07/05 06:01:19;;;;;;;3.78;3.30;;;;;;;;;;5016418;28;93090;-72
2023/07/05 06:03:46;;;;;;;4.97;2.92;;;;;;;;;;5016165;28;94830;-73
2023/07/05 06:06:13;;;;;;;6.55;3.28;;;;;;;;;;5016399;28;91810;-72
2023/07/05 06:08:39;;;;;;;6.63;3.00;;;;;;;;;;5016091;28;93494;-71
2023/07/05 06:11:05;;;;;;;9.50;3.65;;;;;;;;;;5018750;28;93506;-71
2023/07/05 06:13:32;;;;;;;10.48;4.00;;;;;;;;;;5014346;28;94858;-71
2023/07/05 06:16:00;;;;;;;7.45;3.40;;;;;;;;;;5015760;28;93438;-70
2023/07/05 06:18:39;;;;;;;5.07;1.98;;;;;;;;;;4996151;28;92409;-70
2023/07/05 06:21:05;;;;;;;5.28;2.03;;;;;;;;;;4995364;28;93172;-71
2023/07/05 06:23:32;;;;;;;2.80;2.13;;;;;;;;;;4995744;28;94497;-71
2023/07/05 06:25:58;;;;;;;3.97;1.92;;;;;;;;;;4995330;28;92693;-71
2023/07/05 06:28:24;;;;;;;5.63;2.58;;;;;;;;;;4995558;28;93337;-71
2023/07/05 06:30:51;;;;;;;10.45;2.10;;;;;;;;;;4996038;28;93170;-71
2023/07/05 06:33:18;;;;;;;4.85;1.92;;;;;;;;;;4997638;28;92691;-70
2023/07/05 06:35:47;;;;;;;5.53;1.65;;;;;;;;;;4995088;28;93669;-71
2023/07/05 06:38:14;;;;;;;9.70;1.20;;;;;;;;;;4992571;28;94883;-71
2023/07/05 06:40:40;;;;;;;3.33;1.40;;;;;;;;;;4995184;28;95500;-71
2023/07/05 06:43:07;;;;;;;8.43;1.92;;;;;;;;;;4995147;28;93618;-70
2023/07/05 06:45:33;;;;;;;7.00;1.60;;;;;;;;;;4994832;28;92491;-71
2023/07/05 06:48:00;;;;;;;2.97;1.40;;;;;;;;;;5012759;28;93346;-71
2023/07/05 06:50:26;;;;;;;11.77;1.48;;;;;;;;;;5015160;28;94568;-71
2023/07/05 06:52:53;;;;;;;7.55;1.63;;;;;;;;;;5014965;28;92498;-71
2023/07/05 06:55:40;;;;;;;6.38;1.70;;;;;;;;;;5018831;28;92736;-71
2023/07/05 06:58:06;;;;;;;9.18;1.67;;;;;;;;;;5015373;28;92826;-71
2023/07/05 07:00:32;;;;;;;6.75;1.75;;;;;;;;;;5014909;28;93164;-73
2023/07/05 07:02:59;;;;;;;9.05;1.70;;;;;;;;;;5013441;28;97047;-70
2023/07/05 07:05:25;;;;;;;6.35;1.60;;;;;;;;;;5013490;28;92453;-70
2023/07/05 07:07:52;;;;;;;7.68;2.22;;;;;;;;;;5014747;28;93235;-71
2023/07/05 07:10:18;;;;;;;8.70;1.52;;;;;;;;;;5014510;28;93458;-70
2023/07/05 07:12:44;;;;;;;11.18;2.35;;;;;;;;;;5014873;28;92429;-71
2023/07/05 07:15:11;;;;;;;12.50;2.13;;;;;;;;;;5014696;28;93485;-71
2023/07/05 07:17:37;;;;;;;10.00;2.55;;;;;;;;;;5017851;28;93901;-71
2023/07/05 07:20:04;;;;;;;8.85;1.88;;;;;;;;;;5015443;28;93231;-71
2023/07/05 07:22:31;;;;;;;6.75;1.88;;;;;;;;;;5014590;28;93456;-70
2023/07/05 07:24:57;;;;;;;12.32;1.85;;;;;;;;;;5014694;28;92429;-71
2023/07/05 07:27:26;;;;;;;7.13;2.00;;;;;;;;;;5012048;28;95274;-71
2023/07/05 07:29:53;;;;;;;7.90;2.08;;;;;;;;;;5013992;28;93444;-71
2023/07/05 07:32:19;;;;;;;7.13;2.47;;;;;;;;;;5014914;28;92701;-71
2023/07/05 07:34:46;;;;;;;13.30;2.28;;;;;;;;;;5014435;28;93180;-71
2023/07/05 07:37:12;;;;;;;9.98;2.45;;;;;;;;;;5014325;28;93737;-71
2023/07/05 07:39:38;;;;;;;13.20;2.78;;;;;;;;;;5017889;28;92440;-70
2023/07/05 07:42:05;;;;;;;10.63;2.28;;;;;;;;;;5014081;28;93440;-72
2023/07/05 07:44:31;;;;;;;11.88;2.35;;;;;;;;;;5014413;28;91633;-73
2023/07/05 07:46:58;;;;;;;11.30;2.50;;;;;;;;;;5014559;28;92521;-72
2023/07/05 07:49:25;;;;;;;11.20;2.88;;;;;;;;;;5014310;28;93507;-72
2023/07/05 07:51:51;;;;;;;14.98;3.25;;;;;;;;;;5012830;28;94832;-72
2023/07/05 07:54:20;;;;;;;10.75;2.83;;;;;;;;;;5014395;28;95648;-72
2023/07/05 07:56:47;;;;;;;14.82;2.70;;;;;;;;;;5013771;28;92367;-70
2023/07/05 07:59:14;;;;;;;9.82;3.35;;;;;;;;;;5014490;28;92457;-73
2023/07/05 08:01:41;;;;;;;8.93;3.05;;;;;;;;;;5015958;28;94398;-73
2023/07/05 08:04:09;;;;;;;6.68;2.38;;;;;;;;;;5014284;28;92680;-73
2023/07/05 08:06:43;;;;;;;8.20;2.80;;;;;;;;;;5014732;28;93641;-72
2023/07/05 08:09:11;;;;;;;12.77;2.65;;;;;;;;;;5014958;28;92930;-72
2023/07/05 08:11:38;;;;;;;12.60;2.97;;;;;;;;;;5013648;28;92441;-73
2023/07/05 08:14:06;;;;;;;11.60;3.55;;;;;;;;;;5014598;28;94291;-72
2023/07/05 08:16:32;;;;;;;7.18;2.60;;;;;;;;;;5012244;28;95808;-72
2023/07/05 08:18:59;;;;;;;11.35;2.70;;;;;;;;;;5014662;28;92776;-72
2023/07/05 08:21:25;;;;;;;8.15;2.70;;;;;;;;;;5017174;28;93737;-72
2023/07/05 08:23:52;;;;;;;13.35;3.38;;;;;;;;;;5013884;28;92480;-73
2023/07/05 08:26:19;;;;;;;7.47;2.53;;;;;;;;;;5013779;28;93370;-70
2023/07/05 08:28:45;;;;;;;6.28;2.08;;;;;;;;;;5013968;28;92485;-73
2023/07/05 08:31:12;;;;;;;12.77;2.55;;;;;;;;;;5013859;28;92660;-71
2023/07/05 08:33:39;;;;;;;9.68;2.60;;;;;;;;;;5014356;28;93528;-70
2023/07/05 08:36:08;;;;;;;6.57;2.33;;;;;;;;;;5013785;28;93652;-71
2023/07/05 08:38:39;;;;;;;6.80;2.63;;;;;;;;;;5014691;28;92523;-73
2023/07/05 08:41:28;;;;;;;6.85;2.08;;;;;;;;;;5015739;28;95147;-72
2023/07/05 08:43:57;;;;;;;7.07;2.53;;;;;;;;;;5020493;28;93559;-73
2023/07/05 08:46:24;;;;;;;11.13;2.90;;;;;;;;;;5013983;28;93019;-73
2023/07/05 08:48:55;;;;;;;10.88;2.78;;;;;;;;;;4997140;28;93994;-73
2023/07/05 08:51:21;;;;;;;13.50;3.33;;;;;;;;;;4996274;28;92452;-72
2023/07/05 08:53:51;;;;;;;7.55;2.28;;;;;;;;;;4997254;28;93237;-72
2023/07/05 08:56:26;;;;;;;7.90;2.85;;;;;;;;;;4996970;28;93601;-72
2023/07/05 08:59:06;;;;;;;7.95;2.70;;;;;;;;;;4997692;28;91763;-70
2023/07/05 09:01:34;;;;;;;9.23;2.65;;;;;;;;;;4996886;28;93406;-73
2023/07/05 09:04:00;;;;;;;11.10;2.85;;;;;;;;;;4996986;28;92409;-72
2023/07/05 09:06:32;;;;;;;11.20;2.80;;;;;;;;;;4998543;28;94795;-73
2023/07/05 09:09:19;;;;;;;12.75;2.60;;;;;;;;;;4997216;28;93311;-73
2023/07/05 09:11:52;;;;;;;12.00;2.95;;;;;;;;;;4996741;28;92472;-73
2023/07/05 09:14:27;;;;;;;7.20;2.90;;;;;;;;;;5012165;28;93320;-72
2023/07/05 09:17:03;;;;;;;14.85;3.40;;;;;;;;;;5017122;28;93396;-71
2023/07/05 09:19:39;;;;;;;13.48;3.30;;;;;;;;;;5017170;28;92704;-71
2023/07/05 09:22:07;;;;;;;16.17;3.28;;;;;;;;;;5016961;28;94399;-71
2023/07/05 09:24:38;;;;;;;13.90;3.03;;;;;;;;;;5017143;28;93107;-71
2023/07/05 09:27:19;;;;;;;17.55;3.80;;;;;;;;;;5016216;28;92461;-70
2023/07/05 09:29:58;;;;;;;14.57;3.40;;;;;;;;;;5019540;28;93367;-71
2023/07/05 09:32:28;;;;;;;7.88;2.03;;;;;;;;;;5015371;28;94792;-71
2023/07/05 09:34:56;;;;;;;12.47;2.57;;;;;;;;;;5016809;28;96534;-70
2023/07/05 09:37:23;;;;;;;12.80;3.13;;;;;;;;;;5016147;28;93514;-71
2023/07/05 09:39:52;;;;;;;11.93;2.88;;;;;;;;;;5016652;28;92454;-71
2023/07/05 09:42:24;;;;;;;18.13;3.33;;;;;;;;;;5016280;28;93438;-71
2023/07/05 09:44:51;;;;;;;11.63;2.85;;;;;;;;;;5014850;28;93522;-71
2023/07/05 09:47:19;;;;;;;9.00;2.47;;;;;;;;;;5016302;28;92444;-71
2023/07/05 09:49:46;;;;;;;11.82;2.42;;;;;;;;;;5016364;28;93808;-73
2023/07/05 09:52:13;;;;;;;13.85;3.28;;;;;;;;;;5019030;28;93515;-73
2023/07/05 09:54:40;;;;;;;24.48;3.20;;;;;;;;;;5016653;28;93369;-73
2023/07/05 09:57:09;;;;;;;12.75;3.25;;;;;;;;;;5014251;28;95875;-73
2023/07/05 09:59:36;;;;;;;11.25;2.92;;;;;;;;;;5016322;28;92909;-72
2023/07/05 10:02:13;;;;;;;7.82;2.97;;;;;;;;;;4995712;28;93148;-72
2023/07/05 10:04:50;;;;;;;14.10;2.90;;;;;;;;;;4996286;28;93773;-72
2023/07/05 10:07:18;;;;;;;8.15;2.92;;;;;;;;;;4996099;28;92440;-72
2023/07/05 10:09:56;;;;;;;15.35;3.42;;;;;;;;;;5001708;28;93154;-73
2023/07/05 10:12:24;;;;;;;12.55;3.35;;;;;;;;;;5015373;28;93380;-73
2023/07/05 10:14:54;;;;;;;10.55;2.95;;;;;;;;;;5019349;28;92032;-73
2023/07/05 10:17:20;;;;;;;12.52;3.03;;;;;;;;;;5014649;28;93474;-73
2023/07/05 10:19:50;;;;;;;10.98;2.83;;;;;;;;;;5015871;28;92500;-72
2023/07/05 10:22:28;;;;;;;12.85;2.95;;;;;;;;;;5014472;28;95099;-73
2023/07/05 10:24:57;;;;;;;11.68;3.25;;;;;;;;;;5015502;28;93631;-73
2023/07/05 10:27:28;;;;;;;13.73;3.08;;;;;;;;;;5014473;28;92471;-73
2023/07/05 10:29:55;;;;;;;;;;;;;;;;;;5016140;28;93198;-71
2023/07/05 10:32:22;;;;;;;14.27;3.55;;;;;;;;;;5016284;28;123965;-72
2023/07/05 10:34:50;;;;;;;17.67;3.42;;;;;;;;;;5018899;28;92455;-72
2023/07/05 10:37:30;;;;;;;16.40;3.72;;;;;;;;;;5015205;28;92638;-72
2023/07/05 10:39:57;;;;;;;17.90;3.92;;;;;;;;;;5015856;28;91747;-70
2023/07/05 10:42:24;;;;;;;16.63;4.38;;;;;;;;;;5015283;28;92835;-71
2023/07/05 10:44:51;;;;;;;20.30;3.95;;;;;;;;;;5015257;28;93161;-71
2023/07/05 10:47:19;;;;;;;15.23;3.30;;;;;;;;;;5014156;28;94848;-71
2023/07/05 10:49:47;;;;;;;13.68;3.58;;;;;;;;;;5013722;28;95614;-71
2023/07/05 10:52:15;;;;;;;18.15;3.80;;;;;;;;;;5015760;28;93684;-71
2023/07/05 10:54:45;;;;;;;17.48;4.20;;;;;;;;;;5015313;28;92432;-71
2023/07/05 10:57:17;;;;;;;17.90;4.68;;;;;;;;;;5018303;28;93087;-71
2023/07/05 10:59:45;;;;;;;19.50;4.47;;;;;;;;;;5015328;28;92398;-69
2023/07/05 11:02:23;;;;;;;16.42;4.32;;;;;;;;;;5014244;28;93246;-70
2023/07/05 11:04:52;;;;;;;15.48;3.83;;;;;;;;;;5015962;28;92615;-71
2023/07/05 11:07:19;;;;;;;13.93;3.85;;;;;;;;;;5015123;28;92620;-71
2023/07/05 11:09:46;;;;;;;22.35;4.22;;;;;;;;;;5015140;28;93500;-70
2023/07/05 11:12:18;;;;;;;21.10;4.93;;;;;;;;;;5013062;28;96176;-71
2023/07/05 11:14:44;;;;;;;17.98;3.97;;;;;;;;;;5014187;28;92382;-70
2023/07/05 11:17:18;;;;;;;18.92;5.10;;;;;;;;;;5015282;28;93320;-71
2023/07/05 11:19:44;;;;;;;17.05;4.57;;;;;;;;;;5018118;28;93688;-70
2023/07/05 11:22:30;;;;;;;22.95;5.55;;;;;;;;;;5013340;28;93509;-71
2023/07/05 11:24:57;;;;;;;15.88;4.32;;;;;;;;;;5014492;28;93399;-71
2023/07/05 11:27:27;;;;;;;;;;;;;;;;;;5013375;28;92515;-71
2023/07/05 11:29:54;;;;;;;33.67;5.18;;;;;;;;;;5016190;28;123499;-69
2023/07/05 11:32:22;;;;;;;13.20;3.70;;;;;;;;;;5014517;28;93560;-70
2023/07/05 11:34:49;;;;;;;21.17;5.38;;;;;;;;;;5015182;28;93179;-69
2023/07/05 11:37:16;;;;;;;17.13;4.68;;;;;;;;;;5013324;28;94810;-70
2023/07/05 11:39:52;;;;;;;12.05;3.88;;;;;;;;;;5014415;28;93242;-71
2023/07/05 11:42:19;;;;;;;16.95;4.50;;;;;;;;;;5017701;28;92931;-70
2023/07/05 11:44:49;;;;;;;13.15;3.63;;;;;;;;;;5014116;28;93454;-71
2023/07/05 11:47:43;;;;;;;12.27;3.28;;;;;;;;;;5015057;28;92392;-71
2023/07/05 11:50:13;;;;;;;16.30;4.10;;;;;;;;;;5014094;28;93358;-71
2023/07/05 11:52:45;;;;;;;11.73;3.00;;;;;;;;;;5014787;28;94423;-71
2023/07/05 11:55:20;;;;;;;11.00;2.78;;;;;;;;;;5013850;28;91785;-70
2023/07/05 11:57:46;;;;;;;8.13;2.30;;;;;;;;;;5014758;28;92612;-71
2023/07/05 12:00:19;;;;;;;9.23;2.53;;;;;;;;;;5014315;28;94560;-71
2023/07/05 12:02:51;;;;;;;9.65;2.42;;;;;;;;;;5012699;28;94838;-71
2023/07/05 12:05:19;;;;;;;12.75;3.08;;;;;;;;;;5016998;28;95828;-71
2023/07/05 12:07:47;;;;;;;6.75;2.25;;;;;;;;;;5014303;28;92436;-71
2023/07/05 12:10:21;;;;;;;10.90;2.95;;;;;;;;;;5014342;28;93307;-72
2023/07/05 12:12:47;;;;;;;5.53;2.47;;;;;;;;;;5013681;28;93561;-71
2023/07/05 12:15:14;;;;;;;9.95;2.70;;;;;;;;;;5014118;28;92534;-71
2023/07/05 12:17:40;;;;;;;13.82;2.90;;;;;;;;;;5014326;28;92487;-71
2023/07/05 12:20:19;;;;;;;10.05;2.78;;;;;;;;;;5014472;28;93187;-71
2023/07/05 12:22:46;;;;;;;9.70;2.60;;;;;;;;;;5014006;28;92476;-72
2023/07/05 12:25:12;;;;;;;8.82;2.33;;;;;;;;;;5017005;28;93194;-71
2023/07/05 12:27:40;;;;;;;14.15;2.10;;;;;;;;;;5012066;28;94994;-72
2023/07/05 12:30:16;;;;;;;11.25;2.60;;;;;;;;;;5014149;28;96681;-71
2023/07/05 12:32:47;;;;;;;9.73;2.75;;;;;;;;;;5013841;28;94169;-71
2023/07/05 12:35:15;;;;;;;8.30;2.50;;;;;;;;;;5013594;28;92473;-71
2023/07/05 12:37:42;;;;;;;11.10;2.47;;;;;;;;;;5013706;28;93466;-72
2023/07/05 12:40:13;;;;;;;9.75;2.90;;;;;;;;;;5013590;28;93460;-72
2023/07/05 12:42:56;;;;;;;7.00;2.38;;;;;;;;;;5012580;28;92432;-72
2023/07/05 12:45:24;;;;;;;5.07;2.13;;;;;;;;;;5014138;28;93143;-72
2023/07/05 12:47:51;;;;;;;5.65;2.08;;;;;;;;;;5016882;28;93475;-72
2023/07/05 12:50:19;;;;;;;7.68;2.22;;;;;;;;;;5013735;28;93624;-72
2023/07/05 12:52:57;;;;;;;8.00;2.58;;;;;;;;;;5010546;28;97117;-72
2023/07/05 12:55:24;;;;;;;10.85;2.80;;;;;;;;;;5013797;28;92471;-72
2023/07/05 12:57:52;;;;;;;10.52;3.00;;;;;;;;;;5012364;28;93496;-72
2023/07/05 13:00:19;;;;;;;12.15;2.80;;;;;;;;;;5013443;28;93842;-72
2023/07/05 13:02:46;;;;;;;11.35;2.85;;;;;;;;;;5013588;28;92491;-72
2023/07/05 13:05:14;;;;;;;14.07;3.38;;;;;;;;;;5013184;28;93131;-72
2023/07/05 13:07:41;;;;;;;9.57;2.50;;;;;;;;;;5013339;28;93388;-72
2023/07/05 13:10:08;;;;;;;10.35;3.63;;;;;;;;;;5017048;28;92011;-72
2023/07/05 13:12:55;;;;;;;14.45;3.05;;;;;;;;;;5013291;28;92557;-72
2023/07/05 13:15:32;;;;;;;11.15;2.75;;;;;;;;;;5012016;28;92514;-72
2023/07/05 13:18:24;;;;;;;19.60;3.45;;;;;;;;;;5010855;28;94833;-72
2023/07/05 13:21:09;;;;;;;10.73;2.70;;;;;;;;;;5013386;28;92428;-72
2023/07/05 13:23:41;;;;;;;10.75;2.85;;;;;;;;;;5013465;28;92529;-72
2023/07/05 13:26:16;;;;;;;16.17;3.72;;;;;;;;;;5015916;28;93396;-72
2023/07/05 13:28:44;;;;;;;11.35;3.22;;;;;;;;;;5016676;28;93577;-72
2023/07/05 13:31:17;;;;;;;18.20;3.25;;;;;;;;;;5016628;28;92506;-72
2023/07/05 13:33:44;;;;;;;19.58;4.55;;;;;;;;;;5019745;28;93223;-72
2023/07/05 13:36:10;;;;;;;9.70;3.10;;;;;;;;;;5017346;28;91738;-72
2023/07/05 13:38:36;;;;;;;13.07;3.00;;;;;;;;;;5016343;28;92900;-72
2023/07/05 13:41:04;;;;;;;13.15;3.10;;;;;;;;;;5016232;28;93559;-72
2023/07/05 13:43:30;;;;;;;16.33;3.22;;;;;;;;;;5014924;28;94992;-72
2023/07/05 13:46:02;;;;;;;10.98;3.63;;;;;;;;;;5016130;28;95991;-72
2023/07/05 13:48:29;;;;;;;10.73;2.90;;;;;;;;;;4996157;28;93947;-72
2023/07/05 13:50:56;;;;;;;19.38;3.78;;;;;;;;;;4996691;28;92435;-72
2023/07/05 13:53:24;;;;;;;8.95;3.85;;;;;;;;;;4995026;28;94294;-72
2023/07/05 13:55:51;;;;;;;14.88;3.92;;;;;;;;;;4999174;28;93536;-72
2023/07/05 13:58:17;;;;;;;14.57;3.63;;;;;;;;;;4996176;28;93325;-72
2023/07/05 14:00:45;;;;;;;19.45;3.85;;;;;;;;;;4996899;28;93731;-72
2023/07/05 14:03:11;;;;;;;14.18;3.55;;;;;;;;;;4994961;28;92532;-72
2023/07/05 14:05:39;;;;;;;15.63;3.28;;;;;;;;;;4995736;28;93097;-72
2023/07/05 14:08:06;;;;;;;12.23;3.28;;;;;;;;;;4994105;28;95965;-73
2023/07/05 14:10:33;;;;;;;7.75;3.13;;;;;;;;;;4996088;28;92400;-72
2023/07/05 14:13:00;;;;;;;8.68;2.80;;;;;;;;;;4996046;28;93119;-72
2023/07/05 14:15:33;;;;;;;12.40;2.90;;;;;;;;;;4995983;28;93658;-72
2023/07/05 14:18:00;;;;;;;12.23;3.53;;;;;;;;;;5015330;28;92559;-72
2023/07/05 14:20:30;;;;;;;8.70;2.45;;;;;;;;;;5015809;28;94694;-72
2023/07/05 14:23:00;;;;;;;14.98;3.25;;;;;;;;;;5016137;28;92493;-72
2023/07/05 14:25:27;;;;;;;15.77;3.00;;;;;;;;;;5015954;28;93339;-72
2023/07/05 14:27:53;;;;;;;14.50;2.72;;;;;;;;;;5015558;28;93283;-72
2023/07/05 14:30:19;;;;;;;9.40;2.83;;;;;;;;;;5015862;28;92461;-72
2023/07/05 14:32:46;;;;;;;10.65;2.90;;;;;;;;;;5013862;28;94827;-72
2023/07/05 14:35:17;;;;;;;9.77;2.83;;;;;;;;;;5015352;28;93451;-72
2023/07/05 14:37:50;;;;;;;13.95;2.90;;;;;;;;;;5018496;28;92461;-72
2023/07/05 14:40:17;;;;;;;13.35;3.38;;;;;;;;;;5015588;28;93557;-73
2023/07/05 14:42:44;;;;;;;11.93;3.53;;;;;;;;;;5015415;28;94244;-72
2023/07/05 14:45:22;;;;;;;12.18;3.40;;;;;;;;;;5015367;28;93500;-72